Details From EGGW - London Luton
To EGNR - Hawarden
Flight Number -
Tags decoded
Created
Modified
Stats Distance 140 nm / 259 km
Max Altitude 0 ft / 0 m
Waypoints 5
Social Downloads 0
Likes 0
Share VATSIM

Download

Looking for another format? Having issues loading an existing format? Contact us
Advertisement - Login to hide

Notes

Requested: EGGW HON LISTO LOVEL EGNR

Route

EGGW HON LISTO LOVEL EGNR

ID Type Via Altitude Latitude Longitude Leg Dist Tot Dist Heading (true) Name
O EGGW APT - 0 ft / 0 m 51.87463˚ -0.36845˚ - 0 nm - London Luton
HON VOR - 0 ft / 0 m 52.35667˚ -1.66361˚ 55 nm 55 nm 302° / 301° HONILEY VOR-DME
LISTO FIX - 0 ft / 0 m 53.14333˚ -2.19917˚ 51 nm 106 nm 338° / 337° -
LOVEL FIX - 0 ft / 0 m 53.25167˚ -2.27444˚ 7 nm 113 nm 337° / 337° -
O EGNR APT - 0 ft / 0 m 53.17813˚ -2.97766˚ 25 nm 139 nm 260° / 260° Hawarden

Altitude Profile

Advertisement - Login to hide

EGGW

Details ICAO EGGW (LTN)
Name London Luton
Region United Kingdom
Timezone Europe/London (UTC+0.0)
Stats Elevation 526 ft / 160 m (AMSL)
Location 51.874629° -0.368450°
Runways 1
Magnetic Variation 0.574° W

METAR

EGGW 121050Z AUTO 26009KT 9999 NCD M01/M02 Q1008

Decode

TAF

TAF AMD EGGW 120812Z 1208/1306 29010KT 9999 FEW020 TEMPO 1208/1210 9000 BECMG 1209/1212 21008KT PROB30 1215/1221 6000 BECMG 1221/1223 4000 -RADZ BKN003 TEMPO 1222/1306 RADZ PROB30 TEMPO 1222/1302 23015G25KT PROB30 1223/1302 0300 FG BKN001 BECMG 1302/1304 0300 FG BKN001 BECMG 1303/1305 28010KT

Decode

Departure Runways

ID Width Length Bearing (true) Bearing (mag) Surface Threshold Offset Overrun Length
08 151 ft / 46 m 7,066 ft / 2,154 m 74.35° 74.92° Asphalt 0 ft / 0 m 200 ft / 61 m
26 151 ft / 46 m 7,066 ft / 2,154 m 254.38° 254.95° Asphalt 272 ft / 83 m 0 ft / 0 m

EGNR

Details ICAO EGNR (CEG)
Name Hawarden
Region United Kingdom
Timezone Europe/London (UTC+0.0)
Stats Elevation 45 ft / 14 m (AMSL)
Location 53.178130° -2.977664°
Runways 1
Magnetic Variation 1.701° W

METAR

EGNR 121050Z 16004KT 9999 FEW027 M02/M03 Q1006

Decode

TAF

Not found

Destination Runways

ID Width Length Bearing (true) Bearing (mag) Surface Threshold Offset Overrun Length
05 148 ft / 45 m 6,680 ft / 2,036 m 40.93° 42.63° Asphalt 984 ft / 300 m 0 ft / 0 m
23 148 ft / 45 m 6,680 ft / 2,036 m 220.94° 222.64° Asphalt 984 ft / 300 m 0 ft / 0 m

Approach Navaids

Runway Type Ident Frequency Range Bearing (true) Bearing (mag) Slope Elevation
05 Localiser IHWD 110.35 MHz 18 nm / 33 km 34.27° 35.97° - 45 ft / 14 m (AMSL)
05 Glidescope IHWD 110.35 MHz 10 nm / 19 km 40.94° 42.64° 3.50° 42 ft / 13 m (AMSL)
05 DME IHWD 110.35 MHz 18 nm / 33 km - - - 45 ft / 14 m (AMSL)
23 Localiser IHDN 110.35 MHz 18 nm / 33 km 220.89° 222.59° - 32 ft / 10 m (AMSL)
23 Glidescope IHDN 110.35 MHz 10 nm / 19 km 220.94° 222.64° 3.00° 17 ft / 5 m (AMSL)
23 DME IHDN 110.35 MHz 18 nm / 33 km - - - 17 ft / 5 m (AMSL)

Popular Alternatives